地図

経路データ

SID SEASON NUMBER BASIN SUBBASIN NAME ISO_TIME NATURE LAT LON WMO_WIND WMO_PRES WMO_AGENCY TRACK_TYPE DIST2LAND LANDFALL IFLAG USA_AGENCY USA_ATCF_ID USA_LAT USA_LON USA_RECORD USA_STATUS USA_WIND USA_PRES USA_SSHS USA_R34_NE USA_R34_SE USA_R34_SW USA_R34_NW USA_R50_NE USA_R50_SE USA_R50_SW USA_R50_NW USA_R64_NE USA_R64_SE USA_R64_SW USA_R64_NW USA_POCI USA_ROCI USA_RMW USA_EYE TOKYO_LAT TOKYO_LON TOKYO_GRADE TOKYO_WIND TOKYO_PRES TOKYO_R50_DIR TOKYO_R50_LONG TOKYO_R50_SHORT TOKYO_R30_DIR TOKYO_R30_LONG TOKYO_R30_SHORT TOKYO_LAND CMA_LAT CMA_LON CMA_CAT CMA_WIND CMA_PRES HKO_LAT HKO_LON HKO_CAT HKO_WIND HKO_PRES NEWDELHI_LAT NEWDELHI_LON NEWDELHI_GRADE NEWDELHI_WIND NEWDELHI_PRES NEWDELHI_CI NEWDELHI_DP NEWDELHI_POCI REUNION_LAT REUNION_LON REUNION_TYPE REUNION_WIND REUNION_PRES REUNION_TNUM REUNION_CI REUNION_RMW REUNION_R34_NE REUNION_R34_SE REUNION_R34_SW REUNION_R34_NW REUNION_R50_NE REUNION_R50_SE REUNION_R50_SW REUNION_R50_NW REUNION_R64_NE REUNION_R64_SE REUNION_R64_SW REUNION_R64_NW BOM_LAT BOM_LON BOM_TYPE BOM_WIND BOM_PRES BOM_TNUM BOM_CI BOM_RMW BOM_R34_NE BOM_R34_SE BOM_R34_SW BOM_R34_NW BOM_R50_NE BOM_R50_SE BOM_R50_SW BOM_R50_NW BOM_R64_NE BOM_R64_SE BOM_R64_SW BOM_R64_NW BOM_ROCI BOM_POCI BOM_EYE BOM_POS_METHOD BOM_PRES_METHOD NADI_LAT NADI_LON NADI_CAT NADI_WIND NADI_PRES WELLINGTON_LAT WELLINGTON_LON WELLINGTON_WIND WELLINGTON_PRES DS824_LAT DS824_LON DS824_STAGE DS824_WIND DS824_PRES TD9636_LAT TD9636_LON TD9636_STAGE TD9636_WIND TD9636_PRES TD9635_LAT TD9635_LON TD9635_WIND TD9635_PRES TD9635_ROCI NEUMANN_LAT NEUMANN_LON NEUMANN_CLASS NEUMANN_WIND NEUMANN_PRES MLC_LAT MLC_LON MLC_CLASS MLC_WIND MLC_PRES USA_GUST BOM_GUST BOM_GUST_PER REUNION_GUST REUNION_GUST_PER USA_SEAHGT USA_SEARAD_NE USA_SEARAD_SE USA_SEARAD_SW USA_SEARAD_NW STORM_SPEED STORM_DIR
1939042S14072 1939 16 SI MM NOT_NAMED 1939-02-11 06:00:00 NR -14.1000 71.8000 reunion main 1640 1625 _____O________ -1 -14.1000 71.8000 99 9.90000 3 242
1939042S14072 1939 16 SI MM NOT_NAMED 1939-02-11 09:00:00 NR -14.1622 71.6798 main 1625 1615 _____P________ -1 -14.1622 71.6798 99 3 242
1939042S14072 1939 16 SI MM NOT_NAMED 1939-02-11 12:00:00 NR -14.2291 71.5497 main 1606 1591 _____P________ -1 -14.2291 71.5497 99 3 242
1939042S14072 1939 16 SI MM NOT_NAMED 1939-02-11 15:00:00 NR -14.3057 71.3997 main 1591 1567 _____P________ -1 -14.3057 71.3997 99 4 242
1939042S14072 1939 16 SI MM NOT_NAMED 1939-02-11 18:00:00 NR -14.3968 71.2199 main 1567 1542 _____P________ -1 -14.3968 71.2199 99 4 243
1939042S14072 1939 16 SI MM NOT_NAMED 1939-02-11 21:00:00 NR -14.5070 71.0001 main 1542 1509 _____P________ -1 -14.5070 71.0001 99 5 243
1939042S14072 1939 16 SI MM NOT_NAMED 1939-02-12 00:00:00 NR -14.6412 70.7304 main 1509 1470 _____P________ -1 -14.6412 70.7304 99 7 243
1939042S14072 1939 16 SI MM NOT_NAMED 1939-02-12 03:00:00 NR -14.8040 70.4004 main 1470 1421 _____P________ -1 -14.8040 70.4004 99 8 243
1939042S14072 1939 16 SI MM NOT_NAMED 1939-02-12 06:00:00 NR -15.0000 70.0000 reunion main 1421 1373 _____O________ -1 -15.0000 70.0000 99 9.90000 10 243
1939042S14072 1939 16 SI MM NOT_NAMED 1939-02-12 09:00:00 NR -15.2321 69.5225 main 1363 1300 _____P________ -1 -15.2321 69.5225 99 11 243
1939042S14072 1939 16 SI MM NOT_NAMED 1939-02-12 12:00:00 NR -15.4967 68.9769 main 1300 1228 _____P________ -1 -15.4967 68.9769 99 12 243
1939042S14072 1939 16 SI MM NOT_NAMED 1939-02-12 15:00:00 NR -15.7891 68.3761 main 1228 1155 _____P________ -1 -15.7891 68.3761 99 13 243
1939042S14072 1939 16 SI MM NOT_NAMED 1939-02-12 18:00:00 NR -16.1042 67.7330 main 1146 1073 _____P________ -1 -16.1042 67.7330 99 14 243
1939042S14072 1939 16 SI MM NOT_NAMED 1939-02-12 21:00:00 NR -16.4374 67.0607 main 1073 987 _____P________ -1 -16.4374 67.0607 99 15 242
1939042S14072 1939 16 SI MM NOT_NAMED 1939-02-13 00:00:00 NR -16.7840 66.3723 main 987 905 _____P________ -1 -16.7840 66.3723 99 15 242
1939042S14072 1939 16 SI MM NOT_NAMED 1939-02-13 03:00:00 NR -17.1396 65.6810 main 905 819 _____P________ -1 -17.1396 65.6810 99 15 241
1939042S14072 1939 16 SI MM NOT_NAMED 1939-02-13 06:00:00 NR -17.5000 65.0000 reunion main 819 747 _____O________ -1 -17.5000 65.0000 99 9.90000 14 241
1939042S14072 1939 16 SI MM NOT_NAMED 1939-02-13 09:00:00 NR -17.8470 64.3656 main 747 672 _____P________ -1 -17.8470 64.3656 99 14 240
1939042S14072 1939 16 SI MM NOT_NAMED 1939-02-13 12:00:00 NR -18.2033 63.7313 main 662 591 _____P________ -1 -18.2033 63.7313 99 14 239
1939042S14072 1939 16 SI MM NOT_NAMED 1939-02-13 15:00:00 NR -18.5665 63.1000 main 587 516 _____P________ -1 -18.5665 63.1000 99 14 238
1939042S14072 1939 16 SI MM NOT_NAMED 1939-02-13 18:00:00 NR -18.9340 62.4749 main 516 443 _____P________ -1 -18.9340 62.4749 99 14 238
1939042S14072 1939 16 SI MM NOT_NAMED 1939-02-13 21:00:00 NR -19.3035 61.8591 main 443 371 _____P________ -1 -19.3035 61.8591 99 14 237
1939042S14072 1939 16 SI MM NOT_NAMED 1939-02-14 00:00:00 NR -19.6725 61.2558 main 371 304 _____P________ -1 -19.6725 61.2558 99 13 237
1939042S14072 1939 16 SI MM NOT_NAMED 1939-02-14 03:00:00 NR -20.0388 60.6683 main 304 240 _____P________ -1 -20.0388 60.6683 99 13 236
1939042S14072 1939 16 SI MM NOT_NAMED 1939-02-14 06:00:00 NR -20.4000 60.1000 reunion main 240 192 _____O________ -1 -20.4000 60.1000 99 9.90000 13 236
1939042S14072 1939 16 SI MM NOT_NAMED 1939-02-14 09:00:00 NR -20.7435 59.5338 main 182 146 _____P________ -1 -20.7435 59.5338 99 12 237
1939042S14072 1939 16 SI MM NOT_NAMED 1939-02-14 12:00:00 NR -21.0831 58.9843 main 150 129 _____P________ -1 -21.0831 58.9843 99 12 236
1939042S14072 1939 16 SI MM NOT_NAMED 1939-02-14 15:00:00 NR -21.4200 58.4526 main 130 124 _____P________ -1 -21.4200 58.4526 99 12 235
1939042S14072 1939 16 SI MM NOT_NAMED 1939-02-14 18:00:00 NR -21.7552 57.9398 main 146 145 _____P________ -1 -21.7552 57.9398 99 12 234
1939042S14072 1939 16 SI MM NOT_NAMED 1939-02-14 21:00:00 NR -22.0897 57.4470 main 178 174 _____P________ -1 -22.0897 57.4470 99 11 233
1939042S14072 1939 16 SI MM NOT_NAMED 1939-02-15 00:00:00 NR -22.4246 56.9753 main 174 167 _____P________ -1 -22.4246 56.9753 99 11 232
1939042S14072 1939 16 SI MM NOT_NAMED 1939-02-15 03:00:00 NR -22.7610 56.5259 main 181 176 _____P________ -1 -22.7610 56.5259 99 11 230
1939042S14072 1939 16 SI MM NOT_NAMED 1939-02-15 06:00:00 NR -23.1000 56.1000 reunion main 196 196 _____O________ -1 -23.1000 56.1000 99 9.90000 10 229
1939042S14072 1939 16 SI MM NOT_NAMED 1939-02-15 09:00:00 NR -23.4437 55.6847 main 223 223 _____P________ -1 -23.4437 55.6847 99 10 227
1939042S14072 1939 16 SI MM NOT_NAMED 1939-02-15 12:00:00 NR -23.7900 55.2944 main 270 270 _____P________ -1 -23.7900 55.2944 99 10 225
1939042S14072 1939 16 SI MM NOT_NAMED 1939-02-15 15:00:00 NR -24.1386 54.9258 main 310 310 _____P________ -1 -24.1386 54.9258 99 10 223
1939042S14072 1939 16 SI MM NOT_NAMED 1939-02-15 18:00:00 NR -24.4890 54.5760 main 361 361 _____P________ -1 -24.4890 54.5760 99 9 222
1939042S14072 1939 16 SI MM NOT_NAMED 1939-02-15 21:00:00 NR -24.8409 54.2416 main 406 406 _____P________ -1 -24.8409 54.2416 99 9 220
1939042S14072 1939 16 SI MM NOT_NAMED 1939-02-16 00:00:00 NR -25.1937 53.9196 main 458 458 _____P________ -1 -25.1937 53.9196 99 9 219
1939042S14072 1939 16 SI MM NOT_NAMED 1939-02-16 03:00:00 NR -25.5470 53.6068 main 500 500 _____P________ -1 -25.5470 53.6068 99 9 218
1939042S14072 1939 16 SI MM NOT_NAMED 1939-02-16 06:00:00 NR -25.9000 53.3000 reunion main 552 552 _____O________ -1 -25.9000 53.3000 99 9.90000 9 219
1939042S14072 1939 16 SI MM NOT_NAMED 1939-02-16 09:00:00 NR -26.2631 52.9584 main 605 578 _____P________ -1 -26.2631 52.9584 99 10 220
1939042S14072 1939 16 SI MM NOT_NAMED 1939-02-16 12:00:00 NR -26.6281 52.6228 main 578 561 _____P________ -1 -26.6281 52.6228 99 9 219
1939042S14072 1939 16 SI MM NOT_NAMED 1939-02-16 15:00:00 NR -26.9921 52.2960 main 565 552 _____P________ -1 -26.9921 52.2960 99 9 218
1939042S14072 1939 16 SI MM NOT_NAMED 1939-02-16 18:00:00 NR -27.3523 51.9810 main 557 542 _____P________ -1 -27.3523 51.9810 99 9 217
1939042S14072 1939 16 SI MM NOT_NAMED 1939-02-16 21:00:00 NR -27.7060 51.6808 main 548 539 _____P________ -1 -27.7060 51.6808 99 9 216
1939042S14072 1939 16 SI MM NOT_NAMED 1939-02-17 00:00:00 NR -28.0504 51.3984 main 549 541 _____P________ -1 -28.0504 51.3984 99 8 215
1939042S14072 1939 16 SI MM NOT_NAMED 1939-02-17 03:00:00 NR -28.3826 51.1371 main 548 548 _____P________ -1 -28.3826 51.1371 99 8 214
1939042S14072 1939 16 SI MM NOT_NAMED 1939-02-17 06:00:00 NR -28.7000 50.9000 reunion main 557 557 _____O________ -1 -28.7000 50.9000 99 9.90000 7 213
1939042S14072 1939 16 SI MM NOT_NAMED 1939-02-17 09:00:00 NR -29.0095 50.6773 main 568 568 _____P________ -1 -29.0095 50.6773 99 7 211
1939042S14072 1939 16 SI MM NOT_NAMED 1939-02-17 12:00:00 NR -29.3064 50.4787 main 582 582 _____P________ -1 -29.3064 50.4787 99 7 209
1939042S14072 1939 16 SI MM NOT_NAMED 1939-02-17 15:00:00 NR -29.5903 50.3026 main 598 598 _____P________ -1 -29.5903 50.3026 99 6 207
1939042S14072 1939 16 SI MM NOT_NAMED 1939-02-17 18:00:00 NR -29.8609 50.1472 main 616 616 _____P________ -1 -29.8609 50.1472 99 6 206
1939042S14072 1939 16 SI MM NOT_NAMED 1939-02-17 21:00:00 NR -30.1176 50.0110 main 631 631 _____P________ -1 -30.1176 50.0110 99 5 204
1939042S14072 1939 16 SI MM NOT_NAMED 1939-02-18 00:00:00 NR -30.3600 49.8922 main 655 655 _____P________ -1 -30.3600 49.8922 99 5 202
1939042S14072 1939 16 SI MM NOT_NAMED 1939-02-18 03:00:00 NR -30.5876 49.7891 main 670 670 _____P________ -1 -30.5876 49.7891 99 5 201
1939042S14072 1939 16 SI MM NOT_NAMED 1939-02-18 06:00:00 NR -30.8000 49.7000 reunion main 686 686 _____O________ -1 -30.8000 49.7000 99 9.90000 4 199
1939042S14072 1939 16 SI MM NOT_NAMED 1939-02-18 09:00:00 NR -30.9970 49.6231 main 703 703 _____P________ -1 -30.9970 49.6231 99 4 198
1939042S14072 1939 16 SI MM NOT_NAMED 1939-02-18 12:00:00 NR -31.1802 49.5569 main 723 720 _____P________ -1 -31.1802 49.5569 99 4 196
1939042S14072 1939 16 SI MM NOT_NAMED 1939-02-18 15:00:00 NR -31.3515 49.5000 main 740 740 _____P________ -1 -31.3515 49.5000 99 3 195
1939042S14072 1939 16 SI MM NOT_NAMED 1939-02-18 18:00:00 NR -31.5130 49.4507 main 751 747 _____P________ -1 -31.5130 49.4507 99 3 193
1939042S14072 1939 16 SI MM NOT_NAMED 1939-02-18 21:00:00 NR -31.6667 49.4077 main 768 768 _____P________ -1 -31.6667 49.4077 99 3 193
1939042S14072 1939 16 SI MM NOT_NAMED 1939-02-19 00:00:00 NR -31.8144 49.3692 main 779 779 _____P________ -1 -31.8144 49.3692 99 3 193
1939042S14072 1939 16 SI MM NOT_NAMED 1939-02-19 03:00:00 NR -31.9582 49.3339 main 797 797 _____P________ -1 -31.9582 49.3339 99 3 191
1939042S14072 1939 16 SI MM NOT_NAMED 1939-02-19 06:00:00 NR -32.1000 49.3000 reunion main 807 _____O________ -1 -32.1000 49.3000 99 9.90000 3 197

IBTrACS Databaseについて

本データベースは、米国NOAAが公開する1842年以降の世界の熱帯低気圧のベストトラックデータアーカイブInternational Best Track Archive for Climate Stewardship (IBTrACS)を、ウェブで閲覧しやすい形式に変換したものです。

最終更新日:2021-12-06